Hauptseite
METAR-TAF:

METAR-TAF

Flughäfen :

Flughafen Bilbao

Bilbao, Spanien

Breite: 43-18N, Länge: 002-56W, Höhe: 42 m

Beobachtung

Neuester Wetterbericht von vor 34 Minuten, um 00:30 UTC
Wind 3 kt aus Ost/Südost, variierte zwischen Ost und Südost
Temperatur 6°C
Luftfeuchtigkeit 87%
Luftdruck 1025 hPa
Sichtweite 10 km oder mehr

METAR: LEBB 170030Z AUTO 11003KT 080V140 9999 NCD 06/04 Q1025

Zeit: 02:04 (01:04 UTC)

Prognose

Neuester Wetterbericht von vor 2 Stunden und 4 Minuten, um 23:00 UTC
Gültige Prognose vom 17 um 00 UTC bis 17 um 24 UTC
Wind 7 kt aus West/Südwest
Sichtweite 10 km oder mehr
Leicht bewölkt in der Höhe von 3500 ft
Aufgelockert bewölkt in der Höhe von 5000 ft
Wahrscheinlichkeit 30% :
Zeitweise
vom 17 um 20 UTC bis 17 um 23 UTC
Wind 15 kt aus Süd/Südwest, Böen bis zu 25 kt

TAF: LEBB 162300Z 1700/1724 24007KT 9999 FEW035 SCT050 TX15/1714Z TN04/1706Z PROB30 TEMPO 1720/1723 20015G25KT

Wetterbeobachtungen und Prognosen von mehr als 4000 Flughäfen (METAR und TAF Bericht).

Die verfügbaren Stationen werden durch gelbe und rote Markierungen auf der Karte dargestellt.

Führen Sie die Maus auf sie, um den Namen der Station zu sehen.

Darauf klicken, um die Beobachtung von Wetterbeobachtungen und Prognosen zu sehen.

Um die Karte zu ändern : klicken Sie auf den grünen Tasten mit einem schwarzen Kreuz Zum Vergrößern, auf den grünen Button mit einem Gedankenstrich zu verkleinern, oder auf die grünen Pfeile für benachbarte Karten.


METAR-TAF: